sensor_id;sensor_type;location;lat;lon;timestamp;P1;durP1;ratioP1;P2;durP2;ratioP2
19599;SDS011;9947;57.722;12.012;2023-02-13T00:00:03;32.80;;;7.30;;
19599;SDS011;9947;57.722;12.012;2023-02-13T00:02:32;48.23;;;6.80;;
19599;SDS011;9947;57.722;12.012;2023-02-13T00:05:05;33.60;;;7.47;;
19599;SDS011;9947;57.722;12.012;2023-02-13T00:07:34;47.60;;;7.57;;
19599;SDS011;9947;57.722;12.012;2023-02-13T00:10:08;42.53;;;7.90;;
19599;SDS011;9947;57.722;12.012;2023-02-13T00:12:42;46.47;;;7.57;;
19599;SDS011;9947;57.722;12.012;2023-02-13T00:15:15;46.63;;;7.30;;
19599;SDS011;9947;57.722;12.012;2023-02-13T00:17:49;40.97;;;6.83;;
19599;SDS011;9947;57.722;12.012;2023-02-13T00:20:16;37.67;;;7.73;;
19599;SDS011;9947;57.722;12.012;2023-02-13T00:22:51;38.60;;;7.13;;
19599;SDS011;9947;57.722;12.012;2023-02-13T00:25:18;45.13;;;7.83;;
19599;SDS011;9947;57.722;12.012;2023-02-13T00:27:52;37.40;;;7.47;;
19599;SDS011;9947;57.722;12.012;2023-02-13T00:30:19;37.57;;;8.40;;
19599;SDS011;9947;57.722;12.012;2023-02-13T00:32:53;45.43;;;8.10;;
19599;SDS011;9947;57.722;12.012;2023-02-13T00:35:20;57.20;;;7.30;;
19599;SDS011;9947;57.722;12.012;2023-02-13T00:37:54;37.27;;;6.37;;
19599;SDS011;9947;57.722;12.012;2023-02-13T00:40:21;45.90;;;6.73;;
19599;SDS011;9947;57.722;12.012;2023-02-13T00:42:55;39.70;;;6.90;;
19599;SDS011;9947;57.722;12.012;2023-02-13T00:45:28;37.37;;;6.50;;
19599;SDS011;9947;57.722;12.012;2023-02-13T00:48:02;42.33;;;7.80;;
19599;SDS011;9947;57.722;12.012;2023-02-13T00:50:29;41.63;;;6.70;;
19599;SDS011;9947;57.722;12.012;2023-02-13T00:53:11;45.83;;;7.13;;
19599;SDS011;9947;57.722;12.012;2023-02-13T00:55:38;51.20;;;7.03;;
19599;SDS011;9947;57.722;12.012;2023-02-13T00:58:12;38.47;;;6.50;;
19599;SDS011;9947;57.722;12.012;2023-02-13T01:00:40;47.23;;;6.43;;
19599;SDS011;9947;57.722;12.012;2023-02-13T01:03:15;48.33;;;6.87;;
19599;SDS011;9947;57.722;12.012;2023-02-13T01:05:51;53.30;;;7.57;;
19599;SDS011;9947;57.722;12.012;2023-02-13T01:08:27;41.17;;;7.43;;
19599;SDS011;9947;57.722;12.012;2023-02-13T01:10:54;42.70;;;6.57;;
19599;SDS011;9947;57.722;12.012;2023-02-13T01:13:28;33.60;;;7.00;;
19599;SDS011;9947;57.722;12.012;2023-02-13T01:15:55;47.10;;;7.20;;
19599;SDS011;9947;57.722;12.012;2023-02-13T01:18:36;43.30;;;7.00;;
19599;SDS011;9947;57.722;12.012;2023-02-13T01:21:13;43.47;;;6.97;;
19599;SDS011;9947;57.722;12.012;2023-02-13T01:23:50;50.70;;;8.60;;
19599;SDS011;9947;57.722;12.012;2023-02-13T01:26:18;45.60;;;6.50;;
19599;SDS011;9947;57.722;12.012;2023-02-13T01:28:52;44.60;;;8.23;;
19599;SDS011;9947;57.722;12.012;2023-02-13T01:31:19;50.50;;;6.40;;
19599;SDS011;9947;57.722;12.012;2023-02-13T01:33:55;41.30;;;7.20;;
19599;SDS011;9947;57.722;12.012;2023-02-13T01:36:23;44.77;;;6.37;;
19599;SDS011;9947;57.722;12.012;2023-02-13T01:38:58;49.87;;;7.77;;
19599;SDS011;9947;57.722;12.012;2023-02-13T01:41:25;29.03;;;6.30;;
19599;SDS011;9947;57.722;12.012;2023-02-13T01:43:59;41.03;;;6.27;;
19599;SDS011;9947;57.722;12.012;2023-02-13T01:46:28;34.10;;;7.03;;
19599;SDS011;9947;57.722;12.012;2023-02-13T01:49:09;35.13;;;6.23;;
19599;SDS011;9947;57.722;12.012;2023-02-13T01:51:40;41.53;;;6.73;;
19599;SDS011;9947;57.722;12.012;2023-02-13T01:54:17;31.57;;;6.53;;
19599;SDS011;9947;57.722;12.012;2023-02-13T01:56:54;35.93;;;7.00;;
19599;SDS011;9947;57.722;12.012;2023-02-13T01:59:33;37.83;;;7.20;;
19599;SDS011;9947;57.722;12.012;2023-02-13T02:02:06;41.70;;;6.97;;
19599;SDS011;9947;57.722;12.012;2023-02-13T02:04:40;32.27;;;5.60;;
19599;SDS011;9947;57.722;12.012;2023-02-13T02:07:16;31.13;;;6.13;;
19599;SDS011;9947;57.722;12.012;2023-02-13T02:09:47;33.77;;;6.73;;
19599;SDS011;9947;57.722;12.012;2023-02-13T02:12:25;42.43;;;6.00;;
19599;SDS011;9947;57.722;12.012;2023-02-13T02:15:04;33.80;;;5.93;;
19599;SDS011;9947;57.722;12.012;2023-02-13T02:17:32;35.73;;;6.87;;
19599;SDS011;9947;57.722;12.012;2023-02-13T02:20:10;34.37;;;5.93;;
19599;SDS011;9947;57.722;12.012;2023-02-13T02:32:48;35.30;;;6.07;;
19599;SDS011;9947;57.722;12.012;2023-02-13T02:35:31;42.43;;;7.00;;
19599;SDS011;9947;57.722;12.012;2023-02-13T02:38:13;38.27;;;6.60;;
19599;SDS011;9947;57.722;12.012;2023-02-13T02:41:00;45.43;;;6.57;;
19599;SDS011;9947;57.722;12.012;2023-02-13T02:44:04;44.30;;;6.33;;
19599;SDS011;9947;57.722;12.012;2023-02-13T02:46:59;42.30;;;6.60;;
19599;SDS011;9947;57.722;12.012;2023-02-13T02:50:11;32.30;;;6.33;;
19599;SDS011;9947;57.722;12.012;2023-02-13T02:52:57;35.73;;;7.37;;
19599;SDS011;9947;57.722;12.012;2023-02-13T02:55:34;38.27;;;7.17;;
19599;SDS011;9947;57.722;12.012;2023-02-13T02:58:11;37.03;;;7.20;;
19599;SDS011;9947;57.722;12.012;2023-02-13T03:01:06;40.37;;;6.03;;
19599;SDS011;9947;57.722;12.012;2023-02-13T03:04:02;35.17;;;6.33;;
19599;SDS011;9947;57.722;12.012;2023-02-13T03:06:59;36.23;;;6.50;;
19599;SDS011;9947;57.722;12.012;2023-02-13T03:09:38;34.97;;;7.07;;
19599;SDS011;9947;57.722;12.012;2023-02-13T03:12:29;33.87;;;7.67;;
19599;SDS011;9947;57.722;12.012;2023-02-13T03:15:26;36.93;;;8.87;;
19599;SDS011;9947;57.722;12.012;2023-02-13T03:17:54;41.53;;;7.57;;
19599;SDS011;9947;57.722;12.012;2023-02-13T03:20:47;30.30;;;6.97;;
19599;SDS011;9947;57.722;12.012;2023-02-13T03:23:43;36.40;;;8.10;;
19599;SDS011;9947;57.722;12.012;2023-02-13T03:26:31;33.03;;;7.50;;
19599;SDS011;9947;57.722;12.012;2023-02-13T03:29:18;36.57;;;7.67;;
19599;SDS011;9947;57.722;12.012;2023-02-13T03:32:19;38.37;;;6.60;;
19599;SDS011;9947;57.722;12.012;2023-02-13T03:34:55;37.23;;;7.50;;
19599;SDS011;9947;57.722;12.012;2023-02-13T03:37:58;34.70;;;6.23;;
19599;SDS011;9947;57.722;12.012;2023-02-13T03:40:34;41.43;;;6.53;;
19599;SDS011;9947;57.722;12.012;2023-02-13T03:43:26;34.27;;;6.30;;
19599;SDS011;9947;57.722;12.012;2023-02-13T03:46:04;27.50;;;6.20;;
19599;SDS011;9947;57.722;12.012;2023-02-13T03:48:39;34.10;;;6.77;;
19599;SDS011;9947;57.722;12.012;2023-02-13T03:51:27;41.57;;;6.13;;
19599;SDS011;9947;57.722;12.012;2023-02-13T03:54:12;29.17;;;6.57;;
19599;SDS011;9947;57.722;12.012;2023-02-13T03:56:47;43.33;;;6.33;;
19599;SDS011;9947;57.722;12.012;2023-02-13T03:59:40;31.67;;;6.87;;
19599;SDS011;9947;57.722;12.012;2023-02-13T04:02:08;32.37;;;5.80;;
19599;SDS011;9947;57.722;12.012;2023-02-13T04:04:45;25.70;;;5.87;;
19599;SDS011;9947;57.722;12.012;2023-02-13T04:07:16;31.97;;;5.67;;
19599;SDS011;9947;57.722;12.012;2023-02-13T04:09:56;28.63;;;6.00;;
19599;SDS011;9947;57.722;12.012;2023-02-13T04:12:30;30.77;;;5.93;;
19599;SDS011;9947;57.722;12.012;2023-02-13T04:15:12;37.87;;;5.90;;
19599;SDS011;9947;57.722;12.012;2023-02-13T04:17:49;23.53;;;6.10;;
19599;SDS011;9947;57.722;12.012;2023-02-13T04:20:25;38.60;;;5.50;;
19599;SDS011;9947;57.722;12.012;2023-02-13T04:23:03;23.03;;;5.60;;
19599;SDS011;9947;57.722;12.012;2023-02-13T04:25:31;42.10;;;6.53;;
19599;SDS011;9947;57.722;12.012;2023-02-13T04:28:07;41.23;;;6.10;;
19599;SDS011;9947;57.722;12.012;2023-02-13T04:30:40;30.97;;;5.47;;
19599;SDS011;9947;57.722;12.012;2023-02-13T04:33:15;35.53;;;6.67;;
19599;SDS011;9947;57.722;12.012;2023-02-13T04:35:41;30.83;;;6.67;;
19599;SDS011;9947;57.722;12.012;2023-02-13T04:38:15;27.07;;;6.17;;
19599;SDS011;9947;57.722;12.012;2023-02-13T04:40:49;32.87;;;5.83;;
19599;SDS011;9947;57.722;12.012;2023-02-13T04:43:23;31.07;;;6.03;;
19599;SDS011;9947;57.722;12.012;2023-02-13T04:45:51;33.90;;;6.57;;
19599;SDS011;9947;57.722;12.012;2023-02-13T04:48:24;30.10;;;5.60;;
19599;SDS011;9947;57.722;12.012;2023-02-13T04:50:51;28.70;;;5.10;;
19599;SDS011;9947;57.722;12.012;2023-02-13T04:53:25;29.10;;;6.33;;
19599;SDS011;9947;57.722;12.012;2023-02-13T04:55:52;28.40;;;6.03;;
19599;SDS011;9947;57.722;12.012;2023-02-13T04:58:29;22.97;;;5.63;;
19599;SDS011;9947;57.722;12.012;2023-02-13T05:01:10;25.43;;;5.63;;
19599;SDS011;9947;57.722;12.012;2023-02-13T05:03:44;32.50;;;5.30;;
19599;SDS011;9947;57.722;12.012;2023-02-13T05:06:11;44.17;;;6.17;;
19599;SDS011;9947;57.722;12.012;2023-02-13T05:08:44;38.03;;;6.40;;
19599;SDS011;9947;57.722;12.012;2023-02-13T05:11:11;33.30;;;5.97;;
19599;SDS011;9947;57.722;12.012;2023-02-13T05:13:45;27.83;;;5.57;;
19599;SDS011;9947;57.722;12.012;2023-02-13T05:16:12;26.53;;;6.27;;
19599;SDS011;9947;57.722;12.012;2023-02-13T05:18:46;38.23;;;6.27;;
19599;SDS011;9947;57.722;12.012;2023-02-13T05:21:13;32.50;;;6.37;;
19599;SDS011;9947;57.722;12.012;2023-02-13T05:24:04;37.23;;;6.00;;
19599;SDS011;9947;57.722;12.012;2023-02-13T05:26:31;39.73;;;7.40;;
19599;SDS011;9947;57.722;12.012;2023-02-13T05:29:07;26.93;;;5.77;;
19599;SDS011;9947;57.722;12.012;2023-02-13T05:31:43;30.77;;;7.33;;
19599;SDS011;9947;57.722;12.012;2023-02-13T05:34:19;31.70;;;6.33;;
19599;SDS011;9947;57.722;12.012;2023-02-13T05:36:53;32.50;;;7.33;;
19599;SDS011;9947;57.722;12.012;2023-02-13T05:39:27;26.83;;;5.83;;
19599;SDS011;9947;57.722;12.012;2023-02-13T05:41:54;40.33;;;7.07;;
19599;SDS011;9947;57.722;12.012;2023-02-13T05:44:30;47.77;;;7.23;;
19599;SDS011;9947;57.722;12.012;2023-02-13T05:46:57;41.10;;;6.53;;
19599;SDS011;9947;57.722;12.012;2023-02-13T05:49:31;31.40;;;7.07;;
19599;SDS011;9947;57.722;12.012;2023-02-13T05:51:58;34.70;;;6.13;;
19599;SDS011;9947;57.722;12.012;2023-02-13T05:54:31;37.73;;;7.97;;
19599;SDS011;9947;57.722;12.012;2023-02-13T05:57:05;41.07;;;6.80;;
19599;SDS011;9947;57.722;12.012;2023-02-13T05:59:39;34.77;;;6.50;;
19599;SDS011;9947;57.722;12.012;2023-02-13T06:02:07;40.70;;;6.97;;
19599;SDS011;9947;57.722;12.012;2023-02-13T06:04:41;34.93;;;7.20;;
19599;SDS011;9947;57.722;12.012;2023-02-13T06:07:08;40.10;;;6.73;;
19599;SDS011;9947;57.722;12.012;2023-02-13T06:09:42;35.53;;;6.60;;
19599;SDS011;9947;57.722;12.012;2023-02-13T06:12:09;43.30;;;6.73;;
19599;SDS011;9947;57.722;12.012;2023-02-13T06:14:44;42.27;;;6.07;;
19599;SDS011;9947;57.722;12.012;2023-02-13T06:17:17;39.77;;;6.77;;
19599;SDS011;9947;57.722;12.012;2023-02-13T06:19:50;48.47;;;7.47;;
19599;SDS011;9947;57.722;12.012;2023-02-13T06:22:17;36.03;;;7.00;;
19599;SDS011;9947;57.722;12.012;2023-02-13T06:24:50;46.27;;;6.90;;
19599;SDS011;9947;57.722;12.012;2023-02-13T06:27:23;35.53;;;6.73;;
19599;SDS011;9947;57.722;12.012;2023-02-13T06:30:05;30.23;;;6.47;;
19599;SDS011;9947;57.722;12.012;2023-02-13T06:32:32;41.03;;;6.40;;
19599;SDS011;9947;57.722;12.012;2023-02-13T06:35:06;36.63;;;6.73;;
19599;SDS011;9947;57.722;12.012;2023-02-13T06:37:41;47.57;;;8.07;;
19599;SDS011;9947;57.722;12.012;2023-02-13T06:40:09;37.73;;;7.40;;
19599;SDS011;9947;57.722;12.012;2023-02-13T06:42:44;36.07;;;6.87;;
19599;SDS011;9947;57.722;12.012;2023-02-13T06:45:13;38.87;;;6.90;;
19599;SDS011;9947;57.722;12.012;2023-02-13T06:47:46;35.40;;;6.60;;
19599;SDS011;9947;57.722;12.012;2023-02-13T06:50:20;32.93;;;6.70;;
19599;SDS011;9947;57.722;12.012;2023-02-13T06:52:54;43.10;;;7.07;;
19599;SDS011;9947;57.722;12.012;2023-02-13T06:55:21;35.37;;;7.00;;
19599;SDS011;9947;57.722;12.012;2023-02-13T06:57:56;46.30;;;7.33;;
19599;SDS011;9947;57.722;12.012;2023-02-13T07:00:25;38.53;;;6.87;;
19599;SDS011;9947;57.722;12.012;2023-02-13T07:03:00;36.73;;;6.90;;
19599;SDS011;9947;57.722;12.012;2023-02-13T07:05:28;54.77;;;7.83;;
19599;SDS011;9947;57.722;12.012;2023-02-13T07:08:01;35.97;;;8.03;;
19599;SDS011;9947;57.722;12.012;2023-02-13T07:10:36;40.33;;;6.13;;
19599;SDS011;9947;57.722;12.012;2023-02-13T07:13:11;35.93;;;6.70;;
19599;SDS011;9947;57.722;12.012;2023-02-13T07:15:42;30.70;;;7.27;;
19599;SDS011;9947;57.722;12.012;2023-02-13T07:18:15;43.93;;;7.10;;
19599;SDS011;9947;57.722;12.012;2023-02-13T07:20:48;35.37;;;6.83;;
19599;SDS011;9947;57.722;12.012;2023-02-13T07:23:21;32.37;;;6.03;;
19599;SDS011;9947;57.722;12.012;2023-02-13T07:25:48;44.33;;;6.67;;
19599;SDS011;9947;57.722;12.012;2023-02-13T07:28:22;33.10;;;6.43;;
19599;SDS011;9947;57.722;12.012;2023-02-13T07:30:50;27.60;;;5.43;;
19599;SDS011;9947;57.722;12.012;2023-02-13T07:33:24;29.23;;;6.07;;
19599;SDS011;9947;57.722;12.012;2023-02-13T07:35:51;34.00;;;5.83;;
19599;SDS011;9947;57.722;12.012;2023-02-13T07:38:34;27.43;;;6.83;;
19599;SDS011;9947;57.722;12.012;2023-02-13T07:41:02;26.80;;;5.77;;
19599;SDS011;9947;57.722;12.012;2023-02-13T07:43:35;38.67;;;5.70;;
19599;SDS011;9947;57.722;12.012;2023-02-13T07:46:04;32.23;;;6.57;;
19599;SDS011;9947;57.722;12.012;2023-02-13T07:48:37;29.53;;;5.83;;
19599;SDS011;9947;57.722;12.012;2023-02-13T07:51:10;27.80;;;7.13;;
19599;SDS011;9947;57.722;12.012;2023-02-13T07:53:43;29.87;;;6.20;;
19599;SDS011;9947;57.722;12.012;2023-02-13T07:56:10;29.30;;;7.10;;
19599;SDS011;9947;57.722;12.012;2023-02-13T07:58:51;27.37;;;6.43;;
19599;SDS011;9947;57.722;12.012;2023-02-13T08:01:19;38.93;;;6.17;;
19599;SDS011;9947;57.722;12.012;2023-02-13T08:03:53;37.37;;;6.43;;
19599;SDS011;9947;57.722;12.012;2023-02-13T08:06:27;30.97;;;7.60;;
19599;SDS011;9947;57.722;12.012;2023-02-13T08:09:00;31.43;;;6.47;;
19599;SDS011;9947;57.722;12.012;2023-02-13T08:11:45;29.17;;;5.73;;
19599;SDS011;9947;57.722;12.012;2023-02-13T08:14:21;27.90;;;5.87;;
19599;SDS011;9947;57.722;12.012;2023-02-13T08:16:56;34.03;;;6.97;;
19599;SDS011;9947;57.722;12.012;2023-02-13T08:19:31;26.50;;;5.50;;
19599;SDS011;9947;57.722;12.012;2023-02-13T08:21:58;30.40;;;6.03;;
19599;SDS011;9947;57.722;12.012;2023-02-13T08:24:32;37.23;;;6.10;;
19599;SDS011;9947;57.722;12.012;2023-02-13T08:26:59;40.87;;;6.03;;
19599;SDS011;9947;57.722;12.012;2023-02-13T08:29:32;28.03;;;5.60;;
19599;SDS011;9947;57.722;12.012;2023-02-13T08:32:03;26.07;;;4.90;;
19599;SDS011;9947;57.722;12.012;2023-02-13T08:34:37;23.07;;;4.70;;
19599;SDS011;9947;57.722;12.012;2023-02-13T08:37:04;32.93;;;6.10;;
19599;SDS011;9947;57.722;12.012;2023-02-13T08:39:37;22.20;;;4.30;;
19599;SDS011;9947;57.722;12.012;2023-02-13T08:42:10;26.30;;;5.07;;
19599;SDS011;9947;57.722;12.012;2023-02-13T08:44:37;26.73;;;5.17;;
19599;SDS011;9947;57.722;12.012;2023-02-13T08:47:13;27.40;;;5.67;;
19599;SDS011;9947;57.722;12.012;2023-02-13T08:49:40;25.40;;;4.87;;
19599;SDS011;9947;57.722;12.012;2023-02-13T08:52:13;25.47;;;5.30;;
19599;SDS011;9947;57.722;12.012;2023-02-13T08:54:47;33.37;;;5.90;;
19599;SDS011;9947;57.722;12.012;2023-02-13T08:57:21;30.60;;;5.57;;
19599;SDS011;9947;57.722;12.012;2023-02-13T08:59:58;23.70;;;4.23;;
19599;SDS011;9947;57.722;12.012;2023-02-13T09:02:26;25.03;;;4.80;;
19599;SDS011;9947;57.722;12.012;2023-02-13T09:05:00;38.13;;;4.73;;
19599;SDS011;9947;57.722;12.012;2023-02-13T09:07:34;21.93;;;4.50;;
19599;SDS011;9947;57.722;12.012;2023-02-13T09:10:01;19.27;;;4.90;;
19599;SDS011;9947;57.722;12.012;2023-02-13T09:12:29;32.53;;;5.03;;
19599;SDS011;9947;57.722;12.012;2023-02-13T09:15:03;29.27;;;5.17;;
19599;SDS011;9947;57.722;12.012;2023-02-13T09:17:38;27.30;;;5.50;;
19599;SDS011;9947;57.722;12.012;2023-02-13T09:20:12;15.80;;;4.67;;
19599;SDS011;9947;57.722;12.012;2023-02-13T09:22:46;21.93;;;4.60;;
19599;SDS011;9947;57.722;12.012;2023-02-13T09:25:15;20.97;;;4.33;;
19599;SDS011;9947;57.722;12.012;2023-02-13T09:27:48;29.77;;;5.00;;
19599;SDS011;9947;57.722;12.012;2023-02-13T09:30:16;25.50;;;4.63;;
19599;SDS011;9947;57.722;12.012;2023-02-13T09:32:51;19.80;;;4.50;;
19599;SDS011;9947;57.722;12.012;2023-02-13T09:35:27;20.73;;;4.50;;
19599;SDS011;9947;57.722;12.012;2023-02-13T09:38:01;17.20;;;3.83;;
19599;SDS011;9947;57.722;12.012;2023-02-13T09:40:29;27.97;;;4.33;;
19599;SDS011;9947;57.722;12.012;2023-02-13T09:43:10;22.40;;;4.33;;
19599;SDS011;9947;57.722;12.012;2023-02-13T09:45:42;26.73;;;4.67;;
19599;SDS011;9947;57.722;12.012;2023-02-13T09:48:23;21.83;;;4.37;;
19599;SDS011;9947;57.722;12.012;2023-02-13T09:51:01;21.53;;;4.30;;
19599;SDS011;9947;57.722;12.012;2023-02-13T09:53:36;17.03;;;4.13;;
19599;SDS011;9947;57.722;12.012;2023-02-13T09:56:08;23.73;;;4.77;;
19599;SDS011;9947;57.722;12.012;2023-02-13T09:58:46;22.03;;;4.40;;
19599;SDS011;9947;57.722;12.012;2023-02-13T10:01:19;24.97;;;5.23;;
19599;SDS011;9947;57.722;12.012;2023-02-13T10:04:06;20.90;;;4.33;;
19599;SDS011;9947;57.722;12.012;2023-02-13T10:06:48;32.50;;;5.63;;
19599;SDS011;9947;57.722;12.012;2023-02-13T10:09:29;25.00;;;5.43;;
19599;SDS011;9947;57.722;12.012;2023-02-13T10:12:14;23.27;;;4.30;;
19599;SDS011;9947;57.722;12.012;2023-02-13T10:15:01;23.57;;;4.80;;
19599;SDS011;9947;57.722;12.012;2023-02-13T10:17:47;22.30;;;4.03;;
19599;SDS011;9947;57.722;12.012;2023-02-13T10:20:29;28.50;;;4.10;;
19599;SDS011;9947;57.722;12.012;2023-02-13T10:22:59;17.57;;;4.13;;
19599;SDS011;9947;57.722;12.012;2023-02-13T10:25:49;33.60;;;4.37;;
19599;SDS011;9947;57.722;12.012;2023-02-13T10:28:29;18.37;;;4.17;;
19599;SDS011;9947;57.722;12.012;2023-02-13T10:31:02;23.10;;;5.23;;
19599;SDS011;9947;57.722;12.012;2023-02-13T10:33:43;21.43;;;4.07;;
19599;SDS011;9947;57.722;12.012;2023-02-13T10:36:20;25.33;;;4.40;;
19599;SDS011;9947;57.722;12.012;2023-02-13T10:38:59;23.43;;;4.57;;
19599;SDS011;9947;57.722;12.012;2023-02-13T10:41:31;21.97;;;4.20;;
19599;SDS011;9947;57.722;12.012;2023-02-13T10:44:30;23.20;;;4.47;;
19599;SDS011;9947;57.722;12.012;2023-02-13T10:47:18;24.17;;;4.40;;
19599;SDS011;9947;57.722;12.012;2023-02-13T10:50:05;23.50;;;4.50;;
19599;SDS011;9947;57.722;12.012;2023-02-13T10:52:50;21.57;;;5.03;;
19599;SDS011;9947;57.722;12.012;2023-02-13T10:55:43;22.10;;;4.47;;
19599;SDS011;9947;57.722;12.012;2023-02-13T10:58:30;21.50;;;4.87;;
19599;SDS011;9947;57.722;12.012;2023-02-13T11:01:15;25.77;;;4.33;;
19599;SDS011;9947;57.722;12.012;2023-02-13T11:04:00;17.50;;;4.17;;
19599;SDS011;9947;57.722;12.012;2023-02-13T11:06:32;16.13;;;4.10;;
19599;SDS011;9947;57.722;12.012;2023-02-13T11:09:09;23.40;;;4.00;;
19599;SDS011;9947;57.722;12.012;2023-02-13T11:11:39;17.90;;;4.17;;
19599;SDS011;9947;57.722;12.012;2023-02-13T11:14:25;32.43;;;4.83;;
19599;SDS011;9947;57.722;12.012;2023-02-13T11:16:54;26.13;;;4.03;;
19599;SDS011;9947;57.722;12.012;2023-02-13T11:19:35;21.37;;;4.50;;
19599;SDS011;9947;57.722;12.012;2023-02-13T11:22:07;20.97;;;4.00;;
19599;SDS011;9947;57.722;12.012;2023-02-13T11:24:54;22.27;;;4.67;;
19599;SDS011;9947;57.722;12.012;2023-02-13T11:27:25;22.60;;;4.63;;
19599;SDS011;9947;57.722;12.012;2023-02-13T11:30:04;18.90;;;4.00;;
19599;SDS011;9947;57.722;12.012;2023-02-13T11:32:33;18.33;;;4.53;;
19599;SDS011;9947;57.722;12.012;2023-02-13T11:35:25;18.20;;;4.20;;
19599;SDS011;9947;57.722;12.012;2023-02-13T11:38:11;14.43;;;4.17;;
19599;SDS011;9947;57.722;12.012;2023-02-13T11:40:41;33.13;;;5.07;;
19599;SDS011;9947;57.722;12.012;2023-02-13T11:43:17;16.43;;;3.90;;
19599;SDS011;9947;57.722;12.012;2023-02-13T11:46:13;15.07;;;3.83;;
19599;SDS011;9947;57.722;12.012;2023-02-13T11:48:57;13.97;;;3.77;;
19599;SDS011;9947;57.722;12.012;2023-02-13T11:51:40;17.67;;;3.67;;
19599;SDS011;9947;57.722;12.012;2023-02-13T11:54:20;20.47;;;3.80;;
19599;SDS011;9947;57.722;12.012;2023-02-13T11:57:18;22.30;;;3.87;;
19599;SDS011;9947;57.722;12.012;2023-02-13T12:00:08;20.70;;;4.00;;
19599;SDS011;9947;57.722;12.012;2023-02-13T12:03:24;22.73;;;4.50;;
19599;SDS011;9947;57.722;12.012;2023-02-13T12:06:00;20.10;;;3.70;;
19599;SDS011;9947;57.722;12.012;2023-02-13T12:08:44;22.53;;;4.00;;
19599;SDS011;9947;57.722;12.012;2023-02-13T12:11:15;21.47;;;3.80;;
19599;SDS011;9947;57.722;12.012;2023-02-13T12:13:56;17.77;;;3.67;;
19599;SDS011;9947;57.722;12.012;2023-02-13T12:16:31;18.17;;;3.70;;
19599;SDS011;9947;57.722;12.012;2023-02-13T12:19:16;15.60;;;3.77;;
19599;SDS011;9947;57.722;12.012;2023-02-13T12:21:59;17.77;;;4.03;;
19599;SDS011;9947;57.722;12.012;2023-02-13T12:24:47;18.23;;;3.73;;
19599;SDS011;9947;57.722;12.012;2023-02-13T12:27:26;20.07;;;3.87;;
19599;SDS011;9947;57.722;12.012;2023-02-13T12:30:16;19.47;;;4.10;;
19599;SDS011;9947;57.722;12.012;2023-02-13T12:33:15;26.13;;;3.97;;
19599;SDS011;9947;57.722;12.012;2023-02-13T12:35:55;23.27;;;4.83;;
19599;SDS011;9947;57.722;12.012;2023-02-13T12:38:39;18.53;;;4.03;;
19599;SDS011;9947;57.722;12.012;2023-02-13T12:41:17;22.73;;;4.20;;
19599;SDS011;9947;57.722;12.012;2023-02-13T12:47:02;21.73;;;4.23;;
19599;SDS011;9947;57.722;12.012;2023-02-13T12:52:42;22.60;;;4.27;;
19599;SDS011;9947;57.722;12.012;2023-02-13T12:55:27;17.03;;;3.90;;
19599;SDS011;9947;57.722;12.012;2023-02-13T12:58:24;22.53;;;4.10;;
19599;SDS011;9947;57.722;12.012;2023-02-13T13:01:23;13.43;;;3.90;;
19599;SDS011;9947;57.722;12.012;2023-02-13T13:04:13;25.57;;;4.20;;
19599;SDS011;9947;57.722;12.012;2023-02-13T13:06:57;21.37;;;3.70;;
19599;SDS011;9947;57.722;12.012;2023-02-13T13:13:01;21.30;;;4.13;;
19599;SDS011;9947;57.722;12.012;2023-02-13T13:15:46;17.67;;;3.73;;
19599;SDS011;9947;57.722;12.012;2023-02-13T13:18:31;25.40;;;4.80;;
19599;SDS011;9947;57.722;12.012;2023-02-13T13:21:20;20.67;;;5.43;;
19599;SDS011;9947;57.722;12.012;2023-02-13T13:24:16;28.60;;;4.33;;
19599;SDS011;9947;57.722;12.012;2023-02-13T13:27:13;14.27;;;3.47;;
19599;SDS011;9947;57.722;12.012;2023-02-13T13:29:53;22.93;;;4.60;;
19599;SDS011;9947;57.722;12.012;2023-02-13T13:32:24;17.43;;;4.83;;
19599;SDS011;9947;57.722;12.012;2023-02-13T13:35:04;14.80;;;3.30;;
19599;SDS011;9947;57.722;12.012;2023-02-13T13:37:34;21.63;;;4.07;;
19599;SDS011;9947;57.722;12.012;2023-02-13T13:40:28;20.33;;;4.03;;
19599;SDS011;9947;57.722;12.012;2023-02-13T13:43:13;18.23;;;4.37;;
19599;SDS011;9947;57.722;12.012;2023-02-13T13:45:47;23.73;;;3.80;;
19599;SDS011;9947;57.722;12.012;2023-02-13T13:48:34;22.97;;;4.30;;
19599;SDS011;9947;57.722;12.012;2023-02-13T13:51:16;20.77;;;3.97;;
19599;SDS011;9947;57.722;12.012;2023-02-13T13:57:05;23.63;;;3.93;;
19599;SDS011;9947;57.722;12.012;2023-02-13T13:59:58;14.93;;;4.07;;
19599;SDS011;9947;57.722;12.012;2023-02-13T14:02:50;21.07;;;3.43;;
19599;SDS011;9947;57.722;12.012;2023-02-13T14:18:22;17.93;;;4.27;;
19599;SDS011;9947;57.722;12.012;2023-02-13T14:20:57;29.33;;;4.23;;
19599;SDS011;9947;57.722;12.012;2023-02-13T14:23:33;23.17;;;4.57;;
19599;SDS011;9947;57.722;12.012;2023-02-13T14:26:30;25.50;;;4.27;;
19599;SDS011;9947;57.722;12.012;2023-02-13T14:29:29;18.57;;;3.10;;
19599;SDS011;9947;57.722;12.012;2023-02-13T14:32:02;19.43;;;4.07;;
19599;SDS011;9947;57.722;12.012;2023-02-13T14:34:50;16.47;;;3.80;;
19599;SDS011;9947;57.722;12.012;2023-02-13T14:37:20;22.30;;;3.73;;
19599;SDS011;9947;57.722;12.012;2023-02-13T14:46:19;22.23;;;4.07;;
19599;SDS011;9947;57.722;12.012;2023-02-13T14:49:00;20.67;;;4.00;;
19599;SDS011;9947;57.722;12.012;2023-02-13T14:51:38;22.10;;;4.13;;
19599;SDS011;9947;57.722;12.012;2023-02-13T14:54:15;27.57;;;4.57;;
19599;SDS011;9947;57.722;12.012;2023-02-13T14:56:59;15.87;;;4.40;;
19599;SDS011;9947;57.722;12.012;2023-02-13T14:59:37;20.17;;;3.80;;
19599;SDS011;9947;57.722;12.012;2023-02-13T15:02:17;13.93;;;3.83;;
19599;SDS011;9947;57.722;12.012;2023-02-13T15:04:48;32.03;;;4.47;;
19599;SDS011;9947;57.722;12.012;2023-02-13T15:07:34;17.63;;;4.07;;
19599;SDS011;9947;57.722;12.012;2023-02-13T15:10:05;15.33;;;3.27;;
19599;SDS011;9947;57.722;12.012;2023-02-13T15:12:56;23.30;;;4.30;;
19599;SDS011;9947;57.722;12.012;2023-02-13T15:15:25;19.10;;;3.83;;
19599;SDS011;9947;57.722;12.012;2023-02-13T15:18:01;17.07;;;4.23;;
19599;SDS011;9947;57.722;12.012;2023-02-13T15:20:40;21.33;;;3.63;;
19599;SDS011;9947;57.722;12.012;2023-02-13T15:23:18;22.27;;;3.93;;
19599;SDS011;9947;57.722;12.012;2023-02-13T15:25:57;20.17;;;4.07;;
19599;SDS011;9947;57.722;12.012;2023-02-13T15:28:33;17.80;;;4.07;;
19599;SDS011;9947;57.722;12.012;2023-02-13T15:31:04;19.23;;;4.03;;
19599;SDS011;9947;57.722;12.012;2023-02-13T15:33:43;34.37;;;5.27;;
19599;SDS011;9947;57.722;12.012;2023-02-13T15:36:18;28.37;;;4.37;;
19599;SDS011;9947;57.722;12.012;2023-02-13T15:38:46;19.60;;;4.10;;
19599;SDS011;9947;57.722;12.012;2023-02-13T15:41:21;23.87;;;4.57;;
19599;SDS011;9947;57.722;12.012;2023-02-13T15:43:59;17.23;;;4.53;;
19599;SDS011;9947;57.722;12.012;2023-02-13T15:46:28;24.20;;;5.03;;
19599;SDS011;9947;57.722;12.012;2023-02-13T15:49:05;26.67;;;4.97;;
19599;SDS011;9947;57.722;12.012;2023-02-13T15:51:34;24.20;;;4.60;;
19599;SDS011;9947;57.722;12.012;2023-02-13T15:54:20;24.83;;;5.00;;
19599;SDS011;9947;57.722;12.012;2023-02-13T15:56:49;19.57;;;4.47;;
19599;SDS011;9947;57.722;12.012;2023-02-13T15:59:25;21.03;;;4.90;;
19599;SDS011;9947;57.722;12.012;2023-02-13T16:01:57;18.20;;;4.20;;
19599;SDS011;9947;57.722;12.012;2023-02-13T16:04:33;27.57;;;5.07;;
19599;SDS011;9947;57.722;12.012;2023-02-13T16:07:08;19.13;;;4.30;;
19599;SDS011;9947;57.722;12.012;2023-02-13T16:09:42;27.00;;;4.63;;
19599;SDS011;9947;57.722;12.012;2023-02-13T16:12:24;23.93;;;4.77;;